createdAt,value
2023-06-09T00:00:28.973Z,100429.06
2023-06-09T00:01:54.876Z,100433.31
2023-06-09T00:03:22.681Z,100432.66
2023-06-09T00:04:45.334Z,100427.34
2023-06-09T00:06:10.201Z,100421.47
2023-06-09T00:07:34.694Z,100424.72
2023-06-09T00:08:58.376Z,100430.69
2023-06-09T00:10:21.510Z,100419.56
2023-06-09T00:11:44.429Z,100425.19
2023-06-09T00:13:08.793Z,100422.91
2023-06-09T00:14:30.771Z,100424.84
2023-06-09T00:15:53.644Z,100430.38
2023-06-09T00:17:15.753Z,100428.78
2023-06-09T00:18:41.291Z,100424.09
2023-06-09T00:20:04.046Z,100415.50
2023-06-09T00:21:26.825Z,100424.88
2023-06-09T00:22:49.688Z,100415.16
2023-06-09T00:24:12.686Z,100415.16
2023-06-09T00:25:35.176Z,100415.63
2023-06-09T00:26:57.989Z,100405.59
2023-06-09T00:28:21.705Z,100414.16
2023-06-09T00:29:44.655Z,100412.28
2023-06-09T00:31:07.358Z,100414.19
2023-06-09T00:32:30.294Z,100415.91
2023-06-09T00:33:52.256Z,100413.00
2023-06-09T00:35:15.315Z,100414.38
2023-06-09T00:36:37.322Z,100415.13
2023-06-09T00:38:00.551Z,100412.25
2023-06-09T00:39:22.883Z,100401.69
2023-06-09T00:40:45.685Z,100408.44
2023-06-09T00:42:08.056Z,100404.75
2023-06-09T00:43:32.231Z,100406.25
2023-06-09T00:44:55.051Z,100403.03
2023-06-09T00:46:16.952Z,100398.84
2023-06-09T00:47:40.006Z,100399.09
2023-06-09T00:49:02.046Z,100399.88
2023-06-09T00:50:25.108Z,100404.28
2023-06-09T00:51:48.008Z,100402.94
2023-06-09T00:53:12.118Z,100408.78
2023-06-09T00:54:34.855Z,100409.66
2023-06-09T00:55:57.784Z,100410.47
2023-06-09T00:57:20.245Z,100407.59
2023-06-09T00:58:44.651Z,100410.38
2023-06-09T01:00:08.030Z,100417.16
2023-06-09T01:01:34.244Z,100414.44
2023-06-09T01:03:01.812Z,100411.88
2023-06-09T01:04:25.193Z,100410.56
2023-06-09T01:05:49.975Z,100408.69
2023-06-09T01:07:18.958Z,100410.66
2023-06-09T01:08:48.425Z,100410.47
2023-06-09T01:10:17.182Z,100404.97
2023-06-09T01:11:51.244Z,100402.91
2023-06-09T01:13:21.891Z,100404.25
2023-06-09T01:14:53.321Z,100401.94
2023-06-09T01:16:34.596Z,100412.50
2023-06-09T01:17:58.983Z,100415.69
2023-06-09T01:19:32.551Z,100420.19
2023-06-09T01:21:07.711Z,100415.91
2023-06-09T01:22:38.710Z,100411.50
2023-06-09T01:24:17.870Z,100411.88
2023-06-09T01:25:47.060Z,100411.31
2023-06-09T01:27:11.912Z,100408.44
2023-06-09T01:28:39.276Z,100410.81
2023-06-09T01:30:02.054Z,100417.13
2023-06-09T01:31:26.436Z,100410.19
2023-06-09T01:32:51.038Z,100406.06
2023-06-09T01:34:15.291Z,100407.56
2023-06-09T01:35:39.066Z,100406.97
2023-06-09T01:37:02.415Z,100404.22
2023-06-09T01:38:27.002Z,100407.94
2023-06-09T01:39:51.462Z,100404.81
2023-06-09T01:41:15.654Z,100409.84
2023-06-09T01:42:38.119Z,100408.63
2023-06-09T01:44:00.986Z,100408.22
2023-06-09T01:45:22.891Z,100403.50
2023-06-09T01:46:46.165Z,100398.13
2023-06-09T01:48:22.368Z,100405.06
2023-06-09T01:49:55.989Z,100401.66
2023-06-09T01:51:26.352Z,100397.50
2023-06-09T01:52:55.674Z,100402.31
2023-06-09T01:54:23.714Z,100403.06
2023-06-09T01:55:52.078Z,100402.81
2023-06-09T01:57:28.483Z,100404.75
2023-06-09T01:58:55.004Z,100410.31
2023-06-09T02:00:19.041Z,100406.25
2023-06-09T02:01:44.488Z,100404.81
2023-06-09T02:03:09.410Z,100411.44
2023-06-09T02:04:33.162Z,100405.81
2023-06-09T02:05:57.633Z,100407.31
2023-06-09T02:07:22.802Z,100402.31
2023-06-09T02:08:45.080Z,100415.81
2023-06-09T02:10:09.836Z,100402.75
2023-06-09T02:11:32.696Z,100403.38
2023-06-09T02:12:56.844Z,100403.13
2023-06-09T02:14:18.877Z,100400.13
2023-06-09T02:15:42.006Z,100407.06
2023-06-09T02:17:05.358Z,100412.75
2023-06-09T02:18:28.247Z,100396.44
2023-06-09T02:19:50.149Z,100397.56
2023-06-09T02:21:13.019Z,100403.25
2023-06-09T02:22:34.874Z,100400.94
2023-06-09T02:23:57.717Z,100401.63
2023-06-09T02:25:19.667Z,100395.69
2023-06-09T02:26:42.507Z,100397.84
2023-06-09T02:28:08.157Z,100404.44
2023-06-09T02:29:31.372Z,100402.38
2023-06-09T02:30:54.190Z,100397.94
2023-06-09T02:32:16.187Z,100402.88
2023-06-09T02:33:39.054Z,100399.44
2023-06-09T02:35:01.853Z,100405.28
2023-06-09T02:36:24.799Z,100402.69
2023-06-09T02:37:47.648Z,100402.75
2023-06-09T02:39:10.052Z,100404.25
2023-06-09T02:40:34.172Z,100395.19
2023-06-09T02:41:56.220Z,100402.00
2023-06-09T02:43:20.530Z,100405.06
2023-06-09T02:44:42.401Z,100405.56
2023-06-09T02:46:05.559Z,100405.88
2023-06-09T02:47:27.556Z,100402.25
2023-06-09T02:48:50.523Z,100399.13
2023-06-09T02:50:12.484Z,100403.31
2023-06-09T02:51:35.810Z,100396.97
2023-06-09T02:52:57.974Z,100398.88
2023-06-09T02:54:21.084Z,100403.50
2023-06-09T02:55:46.193Z,100403.81
2023-06-09T02:57:09.379Z,100400.88
2023-06-09T02:58:32.608Z,100404.97
2023-06-09T02:59:55.776Z,100401.56
2023-06-09T03:01:18.786Z,100397.88
2023-06-09T03:02:43.111Z,100398.00
2023-06-09T03:04:07.534Z,100407.16
2023-06-09T03:05:30.729Z,100414.59
2023-06-09T03:06:55.593Z,100405.44
2023-06-09T03:08:18.527Z,100408.59
2023-06-09T03:09:41.369Z,100399.97
2023-06-09T03:11:03.226Z,100408.50
2023-06-09T03:12:26.077Z,100407.56
2023-06-09T03:13:49.253Z,100403.41
2023-06-09T03:15:12.448Z,100410.94
2023-06-09T03:16:34.428Z,100408.06
2023-06-09T03:17:58.529Z,100415.19
2023-06-09T03:19:21.470Z,100426.06
2023-06-09T03:20:43.546Z,100420.78
2023-06-09T03:22:07.084Z,100419.41
2023-06-09T03:23:31.633Z,100425.59
2023-06-09T03:24:54.469Z,100423.88
2023-06-09T03:26:16.360Z,100426.09
2023-06-09T03:27:39.290Z,100411.53
2023-06-09T03:29:02.556Z,100422.56
2023-06-09T03:30:25.344Z,100415.81
2023-06-09T03:31:48.201Z,100421.06
2023-06-09T03:33:12.285Z,100424.31
2023-06-09T03:34:35.136Z,100421.88
2023-06-09T03:35:57.100Z,100426.97
2023-06-09T03:37:20.060Z,100426.75
2023-06-09T03:38:41.965Z,100427.34
2023-06-09T03:40:06.429Z,100433.06
2023-06-09T03:41:29.467Z,100438.38
2023-06-09T03:42:51.345Z,100434.59
2023-06-09T03:44:15.608Z,100433.25
2023-06-09T03:45:38.521Z,100433.03
2023-06-09T03:47:01.473Z,100426.25
2023-06-09T03:48:24.339Z,100431.88
2023-06-09T03:49:47.179Z,100427.69
2023-06-09T03:51:10.033Z,100434.72
2023-06-09T03:52:32.891Z,100433.34
2023-06-09T03:53:55.796Z,100436.53
2023-06-09T03:55:21.258Z,100443.09
2023-06-09T03:56:44.187Z,100442.66
2023-06-09T03:58:06.987Z,100438.69
2023-06-09T03:59:31.105Z,100452.53
2023-06-09T04:00:53.971Z,100450.66
2023-06-09T04:02:16.034Z,100446.25
2023-06-09T04:03:39.052Z,100443.16
2023-06-09T04:05:00.981Z,100444.66
2023-06-09T04:06:23.795Z,100441.56
2023-06-09T04:07:45.737Z,100445.53
2023-06-09T04:09:08.572Z,100449.84
2023-06-09T04:10:31.404Z,100449.03
2023-06-09T04:11:54.296Z,100449.91
2023-06-09T04:13:16.162Z,100453.72
2023-06-09T04:14:40.342Z,100446.47
2023-06-09T04:16:02.306Z,100448.34
2023-06-09T04:17:25.213Z,100450.59
2023-06-09T04:18:47.700Z,100436.88
2023-06-09T04:20:10.917Z,100437.25
2023-06-09T04:21:33.966Z,100436.19
2023-06-09T04:22:57.301Z,100440.97
2023-06-09T04:24:21.116Z,100442.13
2023-06-09T04:25:44.092Z,100444.19
2023-06-09T04:27:07.137Z,100437.75
2023-06-09T04:28:30.052Z,100438.94
2023-06-09T04:29:53.774Z,100436.53
2023-06-09T04:31:19.946Z,100437.47
2023-06-09T04:32:41.863Z,100437.28
2023-06-09T04:34:10.874Z,100436.72
2023-06-09T04:35:33.814Z,100431.41
2023-06-09T04:36:57.402Z,100438.88
2023-06-09T04:38:21.278Z,100436.25
2023-06-09T04:39:47.100Z,100436.81
2023-06-09T04:41:10.491Z,100440.75
2023-06-09T04:42:32.934Z,100438.06
2023-06-09T04:43:55.812Z,100439.19
2023-06-09T04:45:21.538Z,100436.50
2023-06-09T04:46:43.681Z,100436.03
2023-06-09T04:48:07.190Z,100437.28
2023-06-09T04:49:32.560Z,100431.50
2023-06-09T04:50:55.331Z,100441.59
2023-06-09T04:52:19.632Z,100428.66
2023-06-09T04:53:43.696Z,100426.88
2023-06-09T04:55:07.404Z,100438.22
2023-06-09T04:56:30.362Z,100435.94
2023-06-09T04:57:54.790Z,100440.47
2023-06-09T04:59:18.015Z,100428.84
2023-06-09T05:00:42.217Z,100434.81
2023-06-09T05:02:04.747Z,100426.38
2023-06-09T05:03:28.973Z,100432.56
2023-06-09T05:04:51.782Z,100423.00
2023-06-09T05:06:14.629Z,100433.03
2023-06-09T05:07:36.780Z,100435.97
2023-06-09T05:08:59.637Z,100424.94
2023-06-09T05:10:22.787Z,100419.75
2023-06-09T05:11:45.716Z,100437.28
2023-06-09T05:13:09.518Z,100425.44
2023-06-09T05:14:33.181Z,100426.53
2023-06-09T05:15:58.512Z,100421.69
2023-06-09T05:17:21.904Z,100429.66
2023-06-09T05:18:45.057Z,100425.72
2023-06-09T05:20:10.697Z,100427.72
2023-06-09T05:21:33.740Z,100437.44
2023-06-09T05:22:56.596Z,100437.59
2023-06-09T05:24:19.505Z,100433.69
2023-06-09T05:25:42.497Z,100430.94
2023-06-09T05:27:06.537Z,100427.19
2023-06-09T05:28:29.327Z,100422.31
2023-06-09T05:29:52.362Z,100424.75
2023-06-09T05:31:18.029Z,100434.66
2023-06-09T05:32:40.983Z,100433.50
2023-06-09T05:34:02.891Z,100425.56
2023-06-09T05:35:26.430Z,100428.66
2023-06-09T05:36:49.405Z,100432.41
2023-06-09T05:38:12.308Z,100436.59
2023-06-09T05:39:35.115Z,100431.41
2023-06-09T05:40:58.236Z,100440.16
2023-06-09T05:42:21.069Z,100438.66
2023-06-09T05:43:43.953Z,100441.22
2023-06-09T05:45:07.087Z,100437.47
2023-06-09T05:46:31.306Z,100439.72
2023-06-09T05:47:54.190Z,100437.56
2023-06-09T05:49:17.458Z,100440.63
2023-06-09T05:50:39.430Z,100441.25
2023-06-09T05:52:02.804Z,100442.22
2023-06-09T05:53:26.399Z,100439.66
2023-06-09T05:54:49.572Z,100438.03
2023-06-09T05:56:16.484Z,100437.06
2023-06-09T05:57:41.520Z,100441.63
2023-06-09T05:59:04.893Z,100447.66
2023-06-09T06:00:30.568Z,100444.19
2023-06-09T06:01:54.831Z,100446.63
2023-06-09T06:03:17.017Z,100446.31
2023-06-09T06:04:40.198Z,100448.34
2023-06-09T06:06:03.116Z,100452.16
2023-06-09T06:07:25.008Z,100448.88
2023-06-09T06:08:47.924Z,100444.94
2023-06-09T06:10:11.518Z,100452.34
2023-06-09T06:11:34.575Z,100446.34
2023-06-09T06:12:59.312Z,100451.09
2023-06-09T06:14:22.186Z,100453.69
2023-06-09T06:15:45.369Z,100445.94
2023-06-09T06:17:08.624Z,100448.28
2023-06-09T06:18:31.539Z,100452.97
2023-06-09T06:19:54.368Z,100450.28
2023-06-09T06:21:18.412Z,100450.75
2023-06-09T06:22:42.646Z,100441.47
2023-06-09T06:24:06.542Z,100448.28
2023-06-09T06:25:29.991Z,100441.06
2023-06-09T06:26:53.386Z,100445.63
2023-06-09T06:28:16.883Z,100446.31
2023-06-09T06:29:40.238Z,100447.47
2023-06-09T06:31:04.012Z,100446.44
2023-06-09T06:32:28.239Z,100448.25
2023-06-09T06:33:51.180Z,100446.00
2023-06-09T06:35:13.152Z,100448.81
2023-06-09T06:36:36.355Z,100439.84
2023-06-09T06:37:58.526Z,100443.09
2023-06-09T06:39:21.548Z,100441.16
2023-06-09T06:40:44.519Z,100451.59
2023-06-09T06:42:08.379Z,100443.31
2023-06-09T06:43:31.177Z,100445.41
2023-06-09T06:44:56.377Z,100444.28
2023-06-09T06:46:20.942Z,100447.06
2023-06-09T06:47:46.757Z,100441.50
2023-06-09T06:49:09.635Z,100446.44
2023-06-09T06:50:33.788Z,100455.66
2023-06-09T06:51:56.633Z,100451.72
2023-06-09T06:53:19.561Z,100446.19
2023-06-09T06:54:42.434Z,100445.28
2023-06-09T06:56:05.732Z,100450.03
2023-06-09T06:57:29.119Z,100457.78
2023-06-09T06:58:52.091Z,100457.78
2023-06-09T07:00:16.295Z,100453.16
2023-06-09T07:01:40.361Z,100447.97
2023-06-09T07:03:04.818Z,100456.16
2023-06-09T07:04:28.152Z,100457.41
2023-06-09T07:05:51.262Z,100456.81
2023-06-09T07:07:14.120Z,100454.22
2023-06-09T07:08:37.471Z,100453.63
2023-06-09T07:09:59.674Z,100451.59
2023-06-09T07:11:22.747Z,100458.06
2023-06-09T07:12:45.924Z,100458.28
2023-06-09T07:14:08.743Z,100461.31
2023-06-09T07:15:31.583Z,100453.97
2023-06-09T07:16:54.459Z,100460.84
2023-06-09T07:18:18.856Z,100465.47
2023-06-09T07:19:41.880Z,100471.00
2023-06-09T07:21:05.632Z,100463.22
2023-06-09T07:22:29.338Z,100462.06
2023-06-09T07:23:52.290Z,100465.97
2023-06-09T07:25:15.213Z,100471.63
2023-06-09T07:26:38.044Z,100461.56
2023-06-09T07:28:01.091Z,100458.06
2023-06-09T07:29:23.951Z,100453.88
2023-06-09T07:30:46.745Z,100458.41
2023-06-09T07:32:09.614Z,100459.63
2023-06-09T07:33:35.053Z,100460.88
2023-06-09T07:34:58.824Z,100461.81
2023-06-09T07:36:21.874Z,100455.44
2023-06-09T07:37:43.798Z,100449.72
2023-06-09T07:39:06.857Z,100461.63
2023-06-09T07:40:29.966Z,100457.72
2023-06-09T07:41:52.211Z,100448.50
2023-06-09T07:43:15.086Z,100441.09
2023-06-09T07:44:38.357Z,100446.69
2023-06-09T07:46:01.612Z,100450.22
2023-06-09T07:47:23.601Z,100448.00
2023-06-09T07:48:47.806Z,100446.13
2023-06-09T07:50:11.320Z,100449.63
2023-06-09T07:51:38.141Z,100453.63
2023-06-09T07:53:01.217Z,100455.13
2023-06-09T07:54:24.234Z,100455.97
2023-06-09T07:55:47.098Z,100460.19
2023-06-09T07:57:09.886Z,100463.28
2023-06-09T07:58:33.755Z,100459.97
2023-06-09T07:59:56.374Z,100458.56
2023-06-09T08:01:19.172Z,100466.97
2023-06-09T08:02:43.971Z,100464.44
2023-06-09T08:04:08.770Z,100468.59
2023-06-09T08:05:35.106Z,100464.75
2023-06-09T08:07:00.061Z,100461.47
2023-06-09T08:08:22.878Z,100462.16
2023-06-09T08:09:45.921Z,100461.91
2023-06-09T08:11:08.738Z,100460.88
2023-06-09T08:12:31.705Z,100460.34
2023-06-09T08:13:54.598Z,100470.19
2023-06-09T08:15:17.618Z,100460.94
2023-06-09T08:16:40.606Z,100449.09
2023-06-09T08:18:03.658Z,100456.16
2023-06-09T08:19:29.414Z,100454.09
2023-06-09T08:20:51.350Z,100458.47
2023-06-09T08:22:14.575Z,100459.69
2023-06-09T08:23:37.391Z,100458.16
2023-06-09T08:25:01.176Z,100464.41
2023-06-09T08:26:23.136Z,100458.88
2023-06-09T08:27:47.563Z,100461.34
2023-06-09T08:29:11.860Z,100452.59
2023-06-09T08:30:34.783Z,100460.94
2023-06-09T08:31:57.639Z,100463.59
2023-06-09T08:33:20.691Z,100454.94
2023-06-09T08:34:45.083Z,100455.25
2023-06-09T08:36:08.507Z,100454.59
2023-06-09T08:37:33.147Z,100463.16
2023-06-09T08:38:56.347Z,100455.84
2023-06-09T08:40:19.650Z,100465.16
2023-06-09T08:41:44.149Z,100462.88
2023-06-09T08:43:07.369Z,100458.09
2023-06-09T08:44:30.836Z,100459.84
2023-06-09T08:45:55.204Z,100462.50
2023-06-09T08:47:21.629Z,100455.69
2023-06-09T08:48:51.576Z,100453.13
2023-06-09T08:50:17.651Z,100455.59
2023-06-09T08:51:41.421Z,100455.22
2023-06-09T08:53:04.607Z,100456.38
2023-06-09T08:54:27.819Z,100454.97
2023-06-09T08:55:50.777Z,100455.84
2023-06-09T08:57:13.947Z,100453.19
2023-06-09T08:58:37.804Z,100453.78
2023-06-09T09:00:00.684Z,100451.31
2023-06-09T09:01:23.547Z,100452.63
2023-06-09T09:02:46.420Z,100448.63
2023-06-09T09:04:09.414Z,100448.22
2023-06-09T09:05:34.202Z,100454.00
2023-06-09T09:06:57.317Z,100451.75
2023-06-09T09:08:20.812Z,100453.09
2023-06-09T09:09:43.645Z,100448.28
2023-06-09T09:11:06.536Z,100451.50
2023-06-09T09:12:29.443Z,100449.56
2023-06-09T09:13:52.377Z,100455.88
2023-06-09T09:15:15.269Z,100454.03
2023-06-09T09:16:38.279Z,100449.97
2023-06-09T09:18:00.550Z,100447.72
2023-06-09T09:19:27.731Z,100451.31
2023-06-09T09:20:51.947Z,100448.56
2023-06-09T09:22:14.822Z,100440.72
2023-06-09T09:23:37.633Z,100447.03
2023-06-09T09:25:00.523Z,100453.41
2023-06-09T09:26:28.409Z,100451.47
2023-06-09T09:28:04.760Z,100444.78
2023-06-09T09:29:28.512Z,100449.09
2023-06-09T09:30:52.928Z,100440.63
2023-06-09T09:32:16.518Z,100443.91
2023-06-09T09:33:48.402Z,100437.38
2023-06-09T09:35:11.784Z,100451.31
2023-06-09T09:36:42.873Z,100452.22
2023-06-09T09:38:04.894Z,100440.59
2023-06-09T09:39:27.800Z,100450.09
2023-06-09T09:40:51.896Z,100436.00
2023-06-09T09:42:14.796Z,100446.91
2023-06-09T09:43:37.628Z,100439.72
2023-06-09T09:45:05.247Z,100438.34
2023-06-09T09:46:28.568Z,100440.19
2023-06-09T09:47:50.756Z,100440.09
2023-06-09T09:49:23.666Z,100434.91
2023-06-09T09:50:47.698Z,100437.03
2023-06-09T09:52:13.588Z,100435.09
2023-06-09T09:53:36.575Z,100427.94
2023-06-09T09:55:01.943Z,100431.56
2023-06-09T09:56:25.114Z,100425.28
2023-06-09T09:57:48.372Z,100425.75
2023-06-09T09:59:11.229Z,100432.34
2023-06-09T10:00:36.616Z,100427.97
2023-06-09T10:01:59.561Z,100432.16
2023-06-09T10:03:22.533Z,100437.94
2023-06-09T10:04:47.661Z,100435.59
2023-06-09T10:06:11.923Z,100435.94
2023-06-09T10:07:40.357Z,100445.91
2023-06-09T10:09:05.010Z,100440.22
2023-06-09T10:10:27.607Z,100435.53
2023-06-09T10:11:51.139Z,100439.38
2023-06-09T10:13:15.018Z,100437.53
2023-06-09T10:14:38.011Z,100435.94
2023-06-09T10:16:01.828Z,100427.13
2023-06-09T10:17:27.531Z,100433.69
2023-06-09T10:18:50.822Z,100431.88
2023-06-09T10:20:14.022Z,100436.69
2023-06-09T10:21:38.042Z,100429.56
2023-06-09T10:23:02.702Z,100426.38
2023-06-09T10:24:26.228Z,100424.00
2023-06-09T10:25:48.632Z,100428.03
2023-06-09T10:27:11.832Z,100431.47
2023-06-09T10:28:34.621Z,100428.59
2023-06-09T10:29:57.795Z,100428.38
2023-06-09T10:31:21.535Z,100434.00
2023-06-09T10:32:48.227Z,100429.16
2023-06-09T10:34:12.467Z,100430.03
2023-06-09T10:35:38.954Z,100424.00
2023-06-09T10:37:02.173Z,100422.31
2023-06-09T10:38:29.691Z,100417.63
2023-06-09T10:39:57.617Z,100413.97
2023-06-09T10:41:24.179Z,100413.19
2023-06-09T10:42:57.518Z,100404.59
2023-06-09T10:44:31.477Z,100410.88
2023-06-09T10:45:56.121Z,100413.16
2023-06-09T10:47:44.516Z,100414.47
2023-06-09T10:49:07.649Z,100412.94
2023-06-09T10:50:31.942Z,100405.34
2023-06-09T10:51:53.992Z,100414.94
2023-06-09T10:53:17.000Z,100403.88
2023-06-09T10:54:41.160Z,100413.00
2023-06-09T10:56:34.231Z,100410.75
2023-06-09T10:57:57.556Z,100401.03
2023-06-09T10:59:53.522Z,100397.44
2023-06-09T11:01:17.651Z,100390.88
2023-06-09T11:02:41.491Z,100396.00
2023-06-09T11:04:46.711Z,100385.44
2023-06-09T11:06:09.621Z,100384.16
2023-06-09T11:07:41.540Z,100399.38
2023-06-09T11:09:13.110Z,100392.09
2023-06-09T11:10:38.765Z,100383.41
2023-06-09T11:12:00.742Z,100388.41
2023-06-09T11:13:40.968Z,100381.91
2023-06-09T11:15:04.255Z,100381.97
2023-06-09T11:16:27.242Z,100381.34
2023-06-09T11:17:50.500Z,100376.66
2023-06-09T11:19:25.496Z,100378.31
2023-06-09T11:21:12.029Z,100380.25
2023-06-09T11:22:35.024Z,100379.00
2023-06-09T11:24:01.866Z,100377.44
2023-06-09T11:25:37.937Z,100378.97
2023-06-09T11:27:18.870Z,100378.91
2023-06-09T11:28:42.605Z,100373.38
2023-06-09T11:30:13.104Z,100375.44
2023-06-09T11:31:49.515Z,100374.50
2023-06-09T11:33:12.563Z,100370.69
2023-06-09T11:34:52.869Z,100364.31
2023-06-09T11:36:23.954Z,100364.09
2023-06-09T11:37:50.824Z,100367.94
2023-06-09T11:39:13.870Z,100357.34
2023-06-09T11:40:38.539Z,100354.63
2023-06-09T11:42:01.812Z,100357.75
2023-06-09T11:43:26.775Z,100353.78
2023-06-09T11:44:50.571Z,100356.63
2023-06-09T11:46:13.958Z,100347.59
2023-06-09T11:47:36.883Z,100346.81
2023-06-09T11:49:04.357Z,100341.53
2023-06-09T11:50:28.786Z,100346.81
2023-06-09T11:51:59.287Z,100354.13
2023-06-09T11:53:24.235Z,100350.97
2023-06-09T11:54:50.385Z,100343.88
2023-06-09T11:56:13.364Z,100349.06
2023-06-09T11:57:37.430Z,100345.13
2023-06-09T11:59:02.001Z,100344.66
2023-06-09T12:00:28.166Z,100350.44
2023-06-09T12:01:51.155Z,100345.16
2023-06-09T12:03:19.049Z,100351.97
2023-06-09T12:04:43.917Z,100343.63
2023-06-09T12:06:07.209Z,100346.41
2023-06-09T12:07:30.122Z,100348.97
2023-06-09T12:08:52.040Z,100342.50
2023-06-09T12:10:15.512Z,100340.59
2023-06-09T12:11:49.688Z,100333.13
2023-06-09T12:13:13.477Z,100334.97
2023-06-09T12:14:38.040Z,100335.72
2023-06-09T12:16:03.458Z,100343.34
2023-06-09T12:17:26.749Z,100329.97
2023-06-09T12:18:49.800Z,100339.72
2023-06-09T12:20:23.794Z,100333.13
2023-06-09T12:21:49.320Z,100339.78
2023-06-09T12:23:16.002Z,100335.22
2023-06-09T12:24:39.827Z,100334.75
2023-06-09T12:26:08.230Z,100322.81
2023-06-09T12:27:31.165Z,100329.03
2023-06-09T12:28:54.800Z,100336.16
2023-06-09T12:30:40.573Z,100322.03
2023-06-09T12:32:03.503Z,100326.75
2023-06-09T12:33:31.331Z,100333.44
2023-06-09T12:35:04.449Z,100319.50
2023-06-09T12:36:27.227Z,100321.69
2023-06-09T12:37:50.168Z,100325.53
2023-06-09T12:39:18.895Z,100315.66
2023-06-09T12:40:46.256Z,100319.16
2023-06-09T12:42:13.285Z,100317.22
2023-06-09T12:43:46.681Z,100315.16
2023-06-09T12:45:14.839Z,100304.94
2023-06-09T12:46:41.524Z,100315.06
2023-06-09T12:48:07.905Z,100315.31
2023-06-09T12:49:32.846Z,100314.22
2023-06-09T12:50:57.549Z,100314.88
2023-06-09T12:52:20.591Z,100311.91
2023-06-09T12:53:42.537Z,100313.38
2023-06-09T12:55:11.175Z,100313.66
2023-06-09T12:56:34.490Z,100309.09
2023-06-09T12:57:56.390Z,100312.22
2023-06-09T12:59:19.284Z,100309.00
2023-06-09T13:00:42.339Z,100303.38
2023-06-09T13:02:07.272Z,100306.16
2023-06-09T13:03:30.597Z,100307.94
2023-06-09T13:04:53.644Z,100303.34
2023-06-09T13:06:17.358Z,100303.25
2023-06-09T13:07:40.409Z,100304.50
2023-06-09T13:09:03.397Z,100297.13
2023-06-09T13:10:26.469Z,100293.47
2023-06-09T13:11:49.296Z,100304.66
2023-06-09T13:13:12.140Z,100298.47
2023-06-09T13:14:34.939Z,100301.03
2023-06-09T13:15:58.236Z,100291.47
2023-06-09T13:17:22.837Z,100294.53
2023-06-09T13:18:46.476Z,100289.00
2023-06-09T13:20:10.455Z,100292.91
2023-06-09T13:21:44.667Z,100297.03
2023-06-09T13:23:08.750Z,100287.56
2023-06-09T13:24:31.678Z,100285.47
2023-06-09T13:25:54.543Z,100284.38
2023-06-09T13:27:17.490Z,100276.03
2023-06-09T13:28:40.293Z,100285.19
2023-06-09T13:30:03.502Z,100281.03
2023-06-09T13:31:26.504Z,100275.91
2023-06-09T13:32:50.959Z,100278.91
2023-06-09T13:34:14.249Z,100282.44
2023-06-09T13:35:37.821Z,100270.34
2023-06-09T13:37:00.901Z,100273.66
2023-06-09T13:38:23.849Z,100272.25
2023-06-09T13:39:47.194Z,100282.78
2023-06-09T13:41:10.034Z,100280.13
2023-06-09T13:42:32.868Z,100279.19
2023-06-09T13:43:55.769Z,100262.97
2023-06-09T13:45:18.576Z,100272.78
2023-06-09T13:46:42.620Z,100271.16
2023-06-09T13:48:07.970Z,100263.84
2023-06-09T13:49:30.896Z,100257.91
2023-06-09T13:50:55.241Z,100266.25
2023-06-09T13:52:18.054Z,100260.06
2023-06-09T13:53:40.849Z,100257.44
2023-06-09T13:55:02.799Z,100260.72
2023-06-09T13:56:26.818Z,100257.16
2023-06-09T13:57:49.591Z,100263.19
2023-06-09T13:59:12.662Z,100252.84
2023-06-09T14:00:35.533Z,100261.16
2023-06-09T14:01:59.301Z,100252.28
2023-06-09T14:03:24.113Z,100258.97
2023-06-09T14:04:46.230Z,100258.47
2023-06-09T14:06:09.443Z,100256.16
2023-06-09T14:07:32.386Z,100255.41
2023-06-09T14:08:56.081Z,100249.34
2023-06-09T14:10:19.232Z,100247.66
2023-06-09T14:11:42.059Z,100247.50
2023-06-09T14:13:04.857Z,100250.53
2023-06-09T14:14:27.747Z,100249.34
2023-06-09T14:15:50.774Z,100248.75
2023-06-09T14:17:13.645Z,100243.16
2023-06-09T14:18:38.652Z,100239.59
2023-06-09T14:20:01.554Z,100244.78
2023-06-09T14:21:24.422Z,100245.00
2023-06-09T14:22:46.936Z,100245.69
2023-06-09T14:24:10.076Z,100242.22
2023-06-09T14:25:33.029Z,100235.03
2023-06-09T14:26:55.808Z,100244.66
2023-06-09T14:28:18.610Z,100245.72
2023-06-09T14:29:41.927Z,100243.00
2023-06-09T14:31:04.712Z,100249.47
2023-06-09T14:32:27.793Z,100240.06
2023-06-09T14:33:52.493Z,100241.34
2023-06-09T14:35:23.425Z,100235.06
2023-06-09T14:36:47.314Z,100236.50
2023-06-09T14:38:10.142Z,100234.94
2023-06-09T14:39:32.977Z,100237.84
2023-06-09T14:40:55.984Z,100231.66
2023-06-09T14:42:18.974Z,100232.16
2023-06-09T14:43:41.760Z,100229.81
2023-06-09T14:45:05.134Z,100235.25
2023-06-09T14:46:28.293Z,100224.53
2023-06-09T14:47:53.895Z,100224.09
2023-06-09T14:49:18.103Z,100219.53
2023-06-09T14:50:42.730Z,100229.59
2023-06-09T14:52:05.235Z,100231.66
2023-06-09T14:53:28.042Z,100231.47
2023-06-09T14:54:50.282Z,100222.06
2023-06-09T14:56:14.730Z,100225.50
2023-06-09T14:57:36.604Z,100226.94
2023-06-09T14:59:01.839Z,100223.41
2023-06-09T15:00:26.354Z,100234.03
2023-06-09T15:01:50.166Z,100228.81
2023-06-09T15:03:17.548Z,100240.19
2023-06-09T15:04:41.158Z,100234.88
2023-06-09T15:06:05.097Z,100233.41
2023-06-09T15:07:28.900Z,100229.13
2023-06-09T15:08:53.421Z,100237.47
2023-06-09T15:10:16.347Z,100228.41
2023-06-09T15:11:39.145Z,100223.53
2023-06-09T15:13:03.069Z,100220.00
2023-06-09T15:14:26.374Z,100221.88
2023-06-09T15:15:49.298Z,100219.00
2023-06-09T15:17:11.258Z,100220.66
2023-06-09T15:18:34.063Z,100212.19
2023-06-09T15:19:58.339Z,100215.09
2023-06-09T15:21:21.141Z,100217.31
2023-06-09T15:22:44.231Z,100217.56
2023-06-09T15:24:09.035Z,100207.47
2023-06-09T15:25:34.685Z,100203.31
2023-06-09T15:26:57.593Z,100210.53
2023-06-09T15:28:21.957Z,100206.00
2023-06-09T15:29:44.734Z,100205.22
2023-06-09T15:31:07.607Z,100206.03
2023-06-09T15:32:29.580Z,100207.34
2023-06-09T15:33:53.297Z,100206.47
2023-06-09T15:35:17.438Z,100200.66
2023-06-09T15:36:40.309Z,100198.81
2023-06-09T15:38:03.952Z,100202.00
2023-06-09T15:39:26.745Z,100208.38
2023-06-09T15:40:51.991Z,100205.19
2023-06-09T15:42:15.004Z,100197.34
2023-06-09T15:43:38.823Z,100199.00
2023-06-09T15:45:01.832Z,100205.28
2023-06-09T15:46:24.698Z,100194.66
2023-06-09T15:47:47.420Z,100196.84
2023-06-09T15:49:10.334Z,100197.28
2023-06-09T15:50:34.468Z,100199.44
2023-06-09T15:51:57.275Z,100196.97
2023-06-09T15:53:21.907Z,100200.41
2023-06-09T15:54:45.014Z,100199.78
2023-06-09T15:56:07.871Z,100201.63
2023-06-09T15:57:30.705Z,100194.50
2023-06-09T15:58:53.551Z,100193.69
2023-06-09T16:00:17.213Z,100192.16
2023-06-09T16:01:40.133Z,100189.09
2023-06-09T16:03:06.431Z,100189.25